Airfield :
LOGIN :

Register | Disclaimer

   EN    FR    IT 

 










Legend :    VFR   Marginal VFR   IFR   Intensive IFR   Very Intensive IFR
Visi :
Ceiling :
>= 8 km
>= 3000ft
5 to 8 km
1000 to 3000 ft
1500m to 5 km
500 to 1000 ft
800 to 1500m
200 to 500 ft
< 800m
< 200 ft
Symbols :   Thunderstorms  Fog  Heavy snow  Heavy precipitations  Wind > 20 kt
SIGMETs :     Misc.  Thunderstorms  Icing  Turbulence  Mountain Waves  Volcanic Ashes







- Airport Elevation : 1234 ft
- IATA code : LUX


ELLX - Luxembourg Findel

CURRENT METAR :
  • 240120Z AUTO 19008KT 1300 R24/P2000D DZ OVC000/// 08/07 Q1022 NOSIG

EXPIRED METARs :
  • 240050Z AUTO 20008KT 1600 DZ SCT000/// BKN002/// BKN003/// 07/07 Q1023 NOSIG
  • 240020Z AUTO 20008KT 2600 +DZ BR BKN001/// BKN003/// OVC004/// 07/07 Q1023 NOSIG
  • 232350Z 20010KT 2000 -DZ BR BKN002 07/07 Q1023 NOSIG
  • 232320Z 20009KT 2500 -DZ BR BKN002 07/07 Q1023 NOSIG

TAF TAF ELLX
Valid from the 24 at 00:00 until the 25 at 06:00 UTC


232300Z 2400/2506 21010KT 7000 BKN008
TEMPO 2400/2412 2000 -RADZ BKN004
BECMG 2412/2414 9999 BKN015
BECMG 2417/2419 22012G22KT
TEMPO 2423/2506 4000 RA BKN006
ATIS : +352 4798 27300
Met : +352 4798 27010 / 27050
No reported NOTAMs for that airfield.



MET'MAP, your aeronautical weather chart ! - Copyright ORBIFLY December 2007 - Disclaimer

ORBIFLY MET'MAP TEAM :

Programming & Development : Alexandra Zaïnal
Concept & Development : Baudouin d'Aumeries
Co-Development & Prog : Marc-Olivier Méhu
Technical & hardware support : Manuel Goepfert

Contact : metmap@orbifly.com




SOURCES & CREDITS :

   NOAA